Time,TemperatureF,DewpointF,PressureIn,WindDirection,WindDirectionDegrees,WindSpeedMPH,WindSpeedGustMPH,Humidity,HourlyPrecipIn,Conditions,Clouds,dailyrainin,SoftwareType,DateUTC
2013-03-13 00:17:00,34.7,34.2,29.85,ESE,112,2.7,-999.0,98,-99.99,,,0.00,Acu-Link.com,2013-03-13 04:17:00,
2013-03-13 00:34:00,34.7,34.2,29.85,SSW,202,3.7,-999.0,98,-99.99,,,0.00,Acu-Link.com,2013-03-13 04:34:00,
2013-03-13 00:49:00,34.5,34.0,29.86,WSW,247,5.3,-999.0,98,-99.99,,,0.00,Acu-Link.com,2013-03-13 04:49:00,
2013-03-13 01:08:00,34.5,34.0,29.85,WNW,292,6.8,-999.0,98,-99.99,,,0.00,Acu-Link.com,2013-03-13 05:08:00,
2013-03-13 01:28:00,32.7,32.2,29.84,West,270,5.3,-999.0,98,-99.99,,,0.00,Acu-Link.com,2013-03-13 05:28:00,
2013-03-13 01:47:00,33.8,33.3,29.84,SW,225,2.7,-999.0,98,-99.99,,,0.00,Acu-Link.com,2013-03-13 05:47:00,
2013-03-13 02:08:00,34.0,33.5,29.84,West,270,6.8,-999.0,98,-99.99,,,0.00,Acu-Link.com,2013-03-13 06:08:00,
2013-03-13 02:24:00,33.4,32.9,29.85,SSE,157,0.0,-999.0,98,-99.99,,,0.00,Acu-Link.com,2013-03-13 06:24:00,
2013-03-13 02:42:00,32.9,32.4,29.84,South,180,0.0,-999.0,98,-99.99,,,0.00,Acu-Link.com,2013-03-13 06:42:00,
2013-03-13 02:58:00,32.7,32.2,29.83,WNW,292,0.0,-999.0,98,-99.99,,,0.00,Acu-Link.com,2013-03-13 06:58:00,
2013-03-13 03:21:00,32.2,31.7,29.82,ESE,112,0.0,-999.0,98,-99.99,,,0.00,Acu-Link.com,2013-03-13 07:21:00,
2013-03-13 03:37:00,32.0,31.5,29.82,ESE,112,0.0,-999.0,98,-99.99,,,0.00,Acu-Link.com,2013-03-13 07:37:00,
2013-03-13 04:14:00,30.4,29.9,29.81,WSW,247,0.0,-999.0,98,-99.99,,,0.00,Acu-Link.com,2013-03-13 08:14:00,
2013-03-13 04:30:00,30.9,30.4,29.80,SE,135,0.0,-999.0,98,-99.99,,,0.00,Acu-Link.com,2013-03-13 08:30:00,
2013-03-13 05:02:00,31.8,31.3,29.80,West,270,2.7,-999.0,98,-99.99,,,0.00,Acu-Link.com,2013-03-13 09:02:00,
2013-03-13 05:23:00,32.4,31.9,29.80,South,180,0.0,-999.0,98,-99.99,,,0.00,Acu-Link.com,2013-03-13 09:23:00,
2013-03-13 05:38:00,32.0,31.5,29.80,SE,135,2.2,-999.0,98,-99.99,,,0.00,Acu-Link.com,2013-03-13 09:38:00,
2013-03-13 05:55:00,31.8,31.3,29.80,ESE,112,3.7,-999.0,98,-99.99,,,0.00,Acu-Link.com,2013-03-13 09:55:00,
2013-03-13 06:13:00,32.0,31.5,29.80,NNW,337,0.0,-999.0,98,-99.99,,,0.00,Acu-Link.com,2013-03-13 10:13:00,
2013-03-13 06:35:00,32.2,31.7,29.81,South,180,3.2,-999.0,98,-99.99,,,0.00,Acu-Link.com,2013-03-13 10:35:00,
2013-03-13 06:53:00,32.0,31.5,29.80,SSW,202,4.7,-999.0,98,-99.99,,,0.00,Acu-Link.com,2013-03-13 10:53:00,
2013-03-13 07:09:00,31.5,31.0,29.80,WSW,247,0.0,-999.0,98,-99.99,,,0.00,Acu-Link.com,2013-03-13 11:09:00,
2013-03-13 07:33:00,31.3,30.8,29.80,WNW,292,0.0,-999.0,98,-99.99,,,0.00,Acu-Link.com,2013-03-13 11:33:00,
2013-03-13 07:50:00,31.3,30.8,29.80,WNW,292,0.0,-999.0,98,-99.99,,,0.00,Acu-Link.com,2013-03-13 11:50:00,
2013-03-13 08:06:00,31.8,31.3,29.79,SW,225,0.0,-999.0,98,-99.99,,,0.00,Acu-Link.com,2013-03-13 12:06:00,
2013-03-13 08:49:00,32.0,31.5,29.78,West,270,0.0,-999.0,98,-99.99,,,0.00,Acu-Link.com,2013-03-13 12:49:00,
2013-03-13 09:10:00,32.4,31.9,29.78,NW,315,0.0,-999.0,98,-99.99,,,0.00,Acu-Link.com,2013-03-13 13:10:00,
2013-03-13 09:29:00,33.3,32.8,29.77,NNW,337,0.0,-999.0,98,-99.99,,,0.00,Acu-Link.com,2013-03-13 13:29:00,
2013-03-13 09:45:00,32.1,31.6,29.78,NNW,337,3.7,-999.0,98,-99.99,,,0.00,Acu-Link.com,2013-03-13 13:45:00,
2013-03-13 10:01:00,33.1,32.6,29.78,SW,225,6.3,-999.0,98,-99.99,,,0.00,Acu-Link.com,2013-03-13 14:01:00,
2013-03-13 10:18:00,34.7,34.2,29.78,West,270,8.9,-999.0,98,-99.99,,,0.00,Acu-Link.com,2013-03-13 14:18:00,
2013-03-13 10:38:00,29.8,29.3,29.79,West,270,6.8,-999.0,98,-99.99,,,0.00,Acu-Link.com,2013-03-13 14:38:00,
2013-03-13 10:55:00,29.3,28.8,29.79,West,270,11.4,-999.0,98,-99.99,,,0.00,Acu-Link.com,2013-03-13 14:55:00,
2013-03-13 11:13:00,29.8,29.3,29.79,WNW,292,3.7,-999.0,98,-99.99,,,0.00,Acu-Link.com,2013-03-13 15:13:00,
2013-03-13 11:35:00,29.8,29.3,29.79,WSW,247,7.3,-999.0,98,-99.99,,,0.00,Acu-Link.com,2013-03-13 15:35:00,
2013-03-13 11:55:00,34.5,29.9,29.79,WSW,247,7.8,-999.0,83,-99.99,,,0.00,Acu-Link.com,2013-03-13 15:55:00,
2013-03-13 12:11:00,32.2,31.7,29.81,SSW,202,3.2,-999.0,98,-99.99,,,0.00,Acu-Link.com,2013-03-13 16:11:00,
2013-03-13 12:27:00,32.2,31.7,29.80,WNW,292,0.0,-999.0,98,-99.99,,,0.00,Acu-Link.com,2013-03-13 16:27:00,
2013-03-13 12:44:00,34.5,34.0,29.80,NW,315,0.0,-999.0,98,-99.99,,,0.00,Acu-Link.com,2013-03-13 16:44:00,
2013-03-13 13:09:00,31.8,31.3,29.81,West,270,1.1,-999.0,98,-99.99,,,0.02,Acu-Link.com,2013-03-13 17:09:00,
2013-03-13 13:28:00,34.0,33.5,29.80,South,180,3.2,-999.0,98,-99.99,,,0.03,Acu-Link.com,2013-03-13 17:28:00,
2013-03-13 13:43:00,34.3,33.8,29.80,West,270,9.9,-999.0,98,-99.99,,,0.04,Acu-Link.com,2013-03-13 17:43:00,
2013-03-13 13:59:00,30.9,30.4,29.81,WSW,247,2.2,-999.0,98,-99.99,,,0.04,Acu-Link.com,2013-03-13 17:59:00,
2013-03-13 14:14:00,31.8,31.3,29.82,West,270,7.8,-999.0,98,-99.99,,,0.04,Acu-Link.com,2013-03-13 18:14:00,
2013-03-13 14:30:00,31.6,31.1,29.81,West,270,4.7,-999.0,98,-99.99,,,0.05,Acu-Link.com,2013-03-13 18:30:00,
2013-03-13 14:49:00,34.3,31.7,29.80,West,270,4.2,-999.0,90,-99.99,,,0.05,Acu-Link.com,2013-03-13 18:49:00,
2013-03-13 15:15:00,37.0,33.2,29.79,WSW,247,7.3,-999.0,86,-99.99,,,0.06,Acu-Link.com,2013-03-13 19:15:00,
2013-03-13 15:31:00,37.6,30.1,29.79,SSE,157,7.3,-999.0,74,-99.99,,,0.08,Acu-Link.com,2013-03-13 19:31:00,
2013-03-13 15:52:00,38.7,30.1,29.80,West,270,11.4,-999.0,71,-99.99,,,0.08,Acu-Link.com,2013-03-13 19:52:00,
2013-03-13 16:08:00,33.1,32.6,29.81,SW,225,11.4,-999.0,98,-99.99,,,0.08,Acu-Link.com,2013-03-13 20:08:00,
2013-03-13 16:26:00,31.8,31.3,29.82,WSW,247,11.9,-999.0,98,-99.99,,,0.08,Acu-Link.com,2013-03-13 20:26:00,
2013-03-13 16:42:00,30.6,30.1,29.83,West,270,5.8,-999.0,98,-99.99,,,0.08,Acu-Link.com,2013-03-13 20:42:00,
2013-03-13 17:09:00,31.6,31.1,29.83,West,270,5.8,-999.0,98,-99.99,,,0.09,Acu-Link.com,2013-03-13 21:09:00,
2013-03-13 17:28:00,28.4,27.9,29.86,West,270,8.3,-999.0,98,-99.99,,,0.09,Acu-Link.com,2013-03-13 21:28:00,
2013-03-13 17:47:00,30.0,29.5,29.86,West,270,10.4,-999.0,98,-99.99,,,0.09,Acu-Link.com,2013-03-13 21:47:00,
2013-03-13 18:03:00,30.2,29.7,29.87,South,180,6.8,-999.0,98,-99.99,,,0.09,Acu-Link.com,2013-03-13 22:03:00,
2013-03-13 18:20:00,28.4,27.9,29.88,West,270,11.4,-999.0,98,-99.99,,,0.09,Acu-Link.com,2013-03-13 22:20:00,
2013-03-13 18:50:00,28.4,27.9,29.88,SW,225,6.8,-999.0,98,-99.99,,,0.09,Acu-Link.com,2013-03-13 22:50:00,
2013-03-13 19:15:00,26.4,25.9,29.89,SSW,202,7.8,-999.0,98,-99.99,,,0.09,Acu-Link.com,2013-03-13 23:15:00,
2013-03-13 19:33:00,26.4,25.9,29.90,West,270,6.3,-999.0,98,-99.99,,,0.09,Acu-Link.com,2013-03-13 23:33:00,
2013-03-13 19:54:00,26.4,24.1,29.89,SW,225,2.2,-999.0,91,-99.99,,,0.09,Acu-Link.com,2013-03-13 23:54:00,
2013-03-13 20:15:00,26.6,24.6,29.89,NW,315,12.5,-999.0,92,-99.99,,,0.09,Acu-Link.com,2013-03-14 00:15:00,
2013-03-13 20:30:00,26.6,25.6,29.89,South,180,4.7,-999.0,96,-99.99,,,0.09,Acu-Link.com,2013-03-14 00:30:00,
2013-03-13 20:55:00,26.8,26.3,29.89,South,180,10.9,-999.0,98,-99.99,,,0.09,Acu-Link.com,2013-03-14 00:55:00,
2013-03-13 21:12:00,27.1,26.6,29.88,South,180,9.9,-999.0,98,-99.99,,,0.09,Acu-Link.com,2013-03-14 01:12:00,
2013-03-13 21:29:00,27.0,25.8,29.88,West,270,5.8,-999.0,95,-99.99,,,0.09,Acu-Link.com,2013-03-14 01:29:00,
2013-03-13 22:00:00,26.8,26.3,29.90,West,270,10.4,-999.0,98,-99.99,,,0.09,Acu-Link.com,2013-03-14 02:00:00,
2013-03-13 22:18:00,25.9,25.4,29.91,NW,315,9.9,-999.0,98,-99.99,,,0.09,Acu-Link.com,2013-03-14 02:18:00,
2013-03-13 22:33:00,25.5,25.0,29.91,West,270,13.0,-999.0,98,-99.99,,,0.09,Acu-Link.com,2013-03-14 02:33:00,
2013-03-13 23:02:00,25.7,25.2,29.92,ENE,67,6.8,-999.0,98,-99.99,,,0.09,Acu-Link.com,2013-03-14 03:02:00,
2013-03-13 23:35:00,24.6,24.1,29.92,NW,315,5.8,-999.0,98,-99.99,,,0.09,Acu-Link.com,2013-03-14 03:35:00,
2013-03-13 23:50:00,24.1,23.6,29.92,WSW,247,7.8,-999.0,98,-99.99,,,0.09,Acu-Link.com,2013-03-14 03:50:00,